createdAt,value
2019-03-04T00:09:57.454Z,79.50
2019-03-04T00:20:02.808Z,78.70
2019-03-04T00:30:11.263Z,77.30
2019-03-04T00:40:18.105Z,77.00
2019-03-04T00:50:23.548Z,76.80
2019-03-04T01:00:28.912Z,77.70
2019-03-04T01:10:34.404Z,78.90
2019-03-04T01:20:39.778Z,80.00
2019-03-04T01:30:45.104Z,79.70
2019-03-04T01:40:50.469Z,79.00
2019-03-04T01:50:55.841Z,77.90
2019-03-04T02:01:01.175Z,78.20
2019-03-04T02:11:07.519Z,78.60
2019-03-04T02:21:12.978Z,78.90
2019-03-04T02:31:18.377Z,79.90
2019-03-04T02:41:23.709Z,80.30
2019-03-04T02:51:29.093Z,79.40
2019-03-04T03:01:34.753Z,80.50
2019-03-04T03:11:40.144Z,81.00
2019-03-04T03:21:45.488Z,80.40
2019-03-04T03:31:50.845Z,80.50
2019-03-04T03:41:56.204Z,81.00
2019-03-04T03:52:01.584Z,81.20
2019-03-04T04:02:06.963Z,81.10
2019-03-04T04:12:13.350Z,82.00
2019-03-04T04:22:18.823Z,81.70
2019-03-04T04:32:24.191Z,81.30
2019-03-04T04:42:32.483Z,80.60
2019-03-04T04:52:41.847Z,80.50
2019-03-04T05:02:47.245Z,81.70
2019-03-04T05:12:55.090Z,83.10
2019-03-04T05:23:00.457Z,83.10
2019-03-04T05:33:05.841Z,82.10
2019-03-04T05:43:11.204Z,82.00
2019-03-04T05:53:16.564Z,81.00
2019-03-04T06:03:23.363Z,81.30
2019-03-04T06:13:28.744Z,81.30
2019-03-04T06:23:34.312Z,81.20
2019-03-04T06:33:42.608Z,80.90
2019-03-04T06:43:49.143Z,81.80
2019-03-04T06:54:15.942Z,81.60
2019-03-04T07:04:27.135Z,81.20
2019-03-04T07:14:32.516Z,81.10
2019-03-04T07:24:37.903Z,80.00
2019-03-04T07:34:44.259Z,78.80
2019-03-04T07:44:49.635Z,75.80
2019-03-04T07:54:54.997Z,73.80
2019-03-04T08:05:00.366Z,72.10
2019-03-04T08:15:08.338Z,70.80
2019-03-04T08:25:14.856Z,68.60
2019-03-04T08:35:20.244Z,67.10
2019-03-04T08:45:25.620Z,67.90
2019-03-04T08:55:30.981Z,64.00
2019-03-04T09:05:36.318Z,63.20
2019-03-04T09:15:41.835Z,59.70
2019-03-04T09:26:14.440Z,61.20
2019-03-04T09:36:19.921Z,62.50
2019-03-04T09:46:25.353Z,60.10
2019-03-04T09:56:30.912Z,60.40
2019-03-04T10:07:05.066Z,59.40
2019-03-04T10:17:22.411Z,59.20
2019-03-04T10:27:33.620Z,56.90
2019-03-04T10:37:47.849Z,57.60
2019-03-04T10:47:53.284Z,57.50
2019-03-04T10:57:58.727Z,56.80
2019-03-04T11:08:04.143Z,54.80
2019-03-04T11:18:09.511Z,53.90
2019-03-04T11:28:16.439Z,53.80
2019-03-04T11:38:34.841Z,54.20
2019-03-04T11:48:41.383Z,52.50
2019-03-04T11:58:46.743Z,53.40
2019-03-04T12:08:52.140Z,54.30
2019-03-04T12:18:58.580Z,53.40
2019-03-04T12:29:03.935Z,54.40
2019-03-04T12:39:11.716Z,52.90
2019-03-04T12:49:17.296Z,52.90
2019-03-04T12:59:22.686Z,52.20
2019-03-04T13:09:28.055Z,52.60
2019-03-04T13:19:33.430Z,50.10
2019-03-04T13:29:38.801Z,47.10
2019-03-04T13:39:44.184Z,43.60
2019-03-04T13:49:49.538Z,41.40
2019-03-04T13:59:54.927Z,42.90
2019-03-04T14:10:00.337Z,42.40
2019-03-04T14:20:08.760Z,39.20
2019-03-04T14:30:17.090Z,35.80
2019-03-04T14:40:22.660Z,35.60
2019-03-04T14:50:29.352Z,36.20
2019-03-04T15:00:40.895Z,36.40
2019-03-04T15:10:46.254Z,36.50
2019-03-04T15:20:51.657Z,37.80
2019-03-04T15:30:59.052Z,42.90
2019-03-04T15:41:04.420Z,45.30
2019-03-04T15:51:09.797Z,44.90
2019-03-04T16:01:15.983Z,46.30
2019-03-04T16:11:35.673Z,46.70
2019-03-04T16:21:41.161Z,50.20
2019-03-04T16:31:48.422Z,50.60
2019-03-04T16:41:53.809Z,50.60
2019-03-04T16:51:59.257Z,52.30
2019-03-04T17:02:04.972Z,51.90
2019-03-04T17:12:10.575Z,53.10
2019-03-04T17:22:16.309Z,52.50
2019-03-04T17:32:21.666Z,53.60
2019-03-04T17:42:29.461Z,54.20
2019-03-04T17:52:34.804Z,55.20
2019-03-04T18:02:41.352Z,62.80
2019-03-04T18:12:47.023Z,72.30
2019-03-04T18:22:53.568Z,71.70
2019-03-04T18:33:27.655Z,72.90
2019-03-04T18:43:47.965Z,77.10
2019-03-04T18:53:55.044Z,87.20
2019-03-04T19:04:01.746Z,88.90
2019-03-04T19:14:07.381Z,91.30
2019-03-04T19:24:12.749Z,89.90
2019-03-04T19:34:18.288Z,88.40
2019-03-04T19:44:23.823Z,81.30
2019-03-04T19:54:30.408Z,80.60
2019-03-04T20:04:43.480Z,76.80
2019-03-04T20:14:48.937Z,81.20
2019-03-04T20:24:58.053Z,82.10
2019-03-04T20:35:14.661Z,82.10
2019-03-04T20:45:21.694Z,80.10
2019-03-04T20:55:28.295Z,78.60
2019-03-04T21:05:34.344Z,78.50
2019-03-04T21:15:39.954Z,76.50
2019-03-04T21:25:54.356Z,73.20
2019-03-04T21:36:02.955Z,73.70
2019-03-04T21:46:36.975Z,74.50
2019-03-04T21:56:59.944Z,74.10
2019-03-04T22:07:05.282Z,72.70
2019-03-04T22:17:10.952Z,71.60
2019-03-04T22:27:16.323Z,71.10
2019-03-04T22:37:21.695Z,69.70
2019-03-04T22:47:27.139Z,70.80
2019-03-04T22:57:32.521Z,70.00
2019-03-04T23:07:38.909Z,70.00
2019-03-04T23:17:44.275Z,69.70
2019-03-04T23:27:49.648Z,71.50
2019-03-04T23:37:54.992Z,70.70
2019-03-04T23:48:00.366Z,73.40
2019-03-04T23:58:05.755Z,72.00
